METAR Data
IDs: Format: Raw Decoded Include TAF

Data at: 1351 UTC 26 Feb 2021

EHLE 261325Z AUTO 32011KT 290V350 9999 FEW023 BKN028 BKN031 09/04 Q1035 NOSIG